createdAt,value
2023-01-22T00:00:36.503Z,-10.47
2023-01-22T00:03:03.055Z,-9.22
2023-01-22T00:05:29.674Z,-9.80
2023-01-22T00:07:56.224Z,-10.60
2023-01-22T00:10:22.824Z,-11.33
2023-01-22T00:12:49.387Z,-11.78
2023-01-22T00:15:16.081Z,-10.67
2023-01-22T00:17:42.701Z,-10.27
2023-01-22T00:20:10.158Z,-10.32
2023-01-22T00:22:36.907Z,-10.10
2023-01-22T00:25:05.350Z,-9.39
2023-01-22T00:27:31.907Z,-9.26
2023-01-22T00:29:58.481Z,-9.57
2023-01-22T00:32:25.040Z,-10.57
2023-01-22T00:34:52.643Z,-10.32
2023-01-22T00:37:20.321Z,-10.19
2023-01-22T00:39:47.214Z,-9.83
2023-01-22T00:42:13.818Z,-10.19
2023-01-22T00:44:40.485Z,-9.91
2023-01-22T00:47:07.105Z,-9.36
2023-01-22T00:49:33.705Z,-9.08
2023-01-22T00:52:00.694Z,-9.76
2023-01-22T00:54:27.996Z,-10.40
2023-01-22T00:56:54.597Z,-9.41
2023-01-22T00:59:21.327Z,-10.34
2023-01-22T01:01:49.101Z,-10.59
2023-01-22T01:04:16.231Z,-11.21
2023-01-22T01:06:42.784Z,-13.77
2023-01-22T01:09:12.676Z,-10.40
2023-01-22T01:11:39.626Z,-11.35
2023-01-22T01:14:06.367Z,-10.80
2023-01-22T01:16:33.448Z,-11.50
2023-01-22T01:19:01.598Z,-11.80
2023-01-22T01:21:29.062Z,-11.25
2023-01-22T01:23:56.601Z,-10.39
2023-01-22T01:26:23.425Z,-11.18
2023-01-22T01:28:52.479Z,-10.67
2023-01-22T01:31:20.951Z,-11.44
2023-01-22T01:33:49.490Z,-11.12
2023-01-22T01:36:30.586Z,-11.75
2023-01-22T01:39:05.844Z,-12.80
2023-01-22T01:41:32.644Z,-13.26
2023-01-22T01:44:08.153Z,-12.99
2023-01-22T01:46:39.893Z,-12.95
2023-01-22T01:49:16.344Z,-12.24
2023-01-22T01:51:43.061Z,-11.85
2023-01-22T01:54:11.446Z,-12.79
2023-01-22T01:56:44.758Z,-12.42
2023-01-22T01:59:14.419Z,-12.11
2023-01-22T02:01:42.504Z,-12.56
2023-01-22T02:04:09.383Z,-11.90
2023-01-22T02:06:36.576Z,-11.60
2023-01-22T02:09:03.877Z,-11.28
2023-01-22T02:11:31.954Z,-11.54
2023-01-22T02:14:05.683Z,-11.13
2023-01-22T02:16:32.965Z,-10.84
2023-01-22T02:18:59.603Z,-11.51
2023-01-22T02:21:35.471Z,-11.66
2023-01-22T02:24:05.192Z,-11.91
2023-01-22T02:26:33.022Z,-10.80
2023-01-22T02:28:59.603Z,-10.69
2023-01-22T02:31:29.209Z,-10.63
2023-01-22T02:33:56.167Z,-10.30
2023-01-22T02:36:26.048Z,-10.69
2023-01-22T02:38:53.198Z,-12.20
2023-01-22T02:41:20.084Z,-10.82
2023-01-22T02:43:46.979Z,-10.86
2023-01-22T02:46:14.293Z,-10.34
2023-01-22T02:48:40.930Z,-10.20
2023-01-22T02:51:08.101Z,-9.89
2023-01-22T02:53:35.107Z,-10.04
2023-01-22T02:56:07.010Z,-10.62
2023-01-22T02:58:34.678Z,-10.08
2023-01-22T03:01:18.786Z,-10.30
2023-01-22T03:03:47.954Z,-10.45
2023-01-22T03:06:21.442Z,-11.29
2023-01-22T03:08:49.889Z,-10.82
2023-01-22T03:11:16.784Z,-11.07
2023-01-22T03:14:02.612Z,-11.73
2023-01-22T03:16:48.186Z,-11.79
2023-01-22T03:19:33.565Z,-11.66
2023-01-22T03:22:00.193Z,-11.72
2023-01-22T03:24:26.922Z,-11.65
2023-01-22T03:26:53.810Z,-10.96
2023-01-22T03:29:20.429Z,-10.95
2023-01-22T03:31:48.645Z,-11.97
2023-01-22T03:34:16.675Z,-12.07
2023-01-22T03:36:44.744Z,-11.86
2023-01-22T03:39:12.015Z,-11.70
2023-01-22T03:41:39.078Z,-11.30
2023-01-22T03:44:09.260Z,-10.81
2023-01-22T03:46:37.352Z,-11.55
2023-01-22T03:49:03.984Z,-10.00
2023-01-22T03:51:30.816Z,-9.72
2023-01-22T03:53:58.756Z,-9.64
2023-01-22T03:56:26.840Z,-9.46
2023-01-22T03:58:58.743Z,-9.72
2023-01-22T04:01:28.125Z,-9.32
2023-01-22T04:03:56.432Z,-8.96
2023-01-22T04:06:26.223Z,-9.01
2023-01-22T04:08:57.031Z,-10.21
2023-01-22T04:11:31.280Z,-10.72
2023-01-22T04:13:57.994Z,-9.62
2023-01-22T04:16:27.689Z,-10.55
2023-01-22T04:18:59.998Z,-10.50
2023-01-22T04:21:49.033Z,-9.45
2023-01-22T04:24:16.001Z,-9.20
2023-01-22T04:26:42.696Z,-9.17
2023-01-22T04:29:11.100Z,-8.93
2023-01-22T04:31:37.976Z,-8.83
2023-01-22T04:34:44.287Z,-9.42
2023-01-22T04:37:21.535Z,-9.39
2023-01-22T04:39:48.211Z,-9.17
2023-01-22T04:42:15.305Z,-10.05
2023-01-22T04:44:42.212Z,-9.32
2023-01-22T04:47:08.844Z,-11.77
2023-01-22T04:49:37.763Z,-12.07
2023-01-22T04:52:06.055Z,-11.55
2023-01-22T04:54:32.718Z,-10.79
2023-01-22T04:56:59.334Z,-9.77
2023-01-22T04:59:26.275Z,-10.77
2023-01-22T05:01:53.038Z,-11.22
2023-01-22T05:04:21.787Z,-10.31
2023-01-22T05:06:48.415Z,-9.83
2023-01-22T05:09:15.235Z,-9.50
2023-01-22T05:11:58.207Z,-9.46
2023-01-22T05:14:25.846Z,-9.25
2023-01-22T05:16:52.474Z,-9.13
2023-01-22T05:19:19.917Z,-8.89
2023-01-22T05:21:47.593Z,-8.93
2023-01-22T05:24:18.418Z,-9.32
2023-01-22T05:26:45.792Z,-9.29
2023-01-22T05:29:26.006Z,-9.10
2023-01-22T05:32:15.813Z,-9.97
2023-01-22T05:34:47.919Z,-10.30
2023-01-22T05:37:14.603Z,-11.72
2023-01-22T05:39:41.199Z,-11.36
2023-01-22T05:42:16.576Z,-9.57
2023-01-22T05:44:46.545Z,-9.72
2023-01-22T05:47:14.188Z,-9.29
2023-01-22T05:49:47.689Z,-10.14
2023-01-22T05:52:15.564Z,-10.52
2023-01-22T05:54:43.298Z,-10.01
2023-01-22T05:57:09.957Z,-10.96
2023-01-22T05:59:38.385Z,-10.95
2023-01-22T06:02:07.456Z,-12.13
2023-01-22T06:04:37.984Z,-11.41
2023-01-22T06:07:14.744Z,-12.28
2023-01-22T06:09:41.387Z,-14.43
2023-01-22T06:12:07.980Z,-12.86
2023-01-22T06:14:34.618Z,-13.02
2023-01-22T06:17:02.125Z,-13.82
2023-01-22T06:19:37.584Z,-13.34
2023-01-22T06:22:05.051Z,-11.68
2023-01-22T06:24:39.313Z,-11.41
2023-01-22T06:27:07.775Z,-12.99
2023-01-22T06:29:40.380Z,-12.20
2023-01-22T06:32:07.511Z,-12.64
2023-01-22T06:34:34.241Z,-12.98
2023-01-22T06:37:02.419Z,-13.38
2023-01-22T06:39:32.220Z,-14.79
2023-01-22T06:42:04.347Z,-14.16
2023-01-22T06:44:31.019Z,-13.95
2023-01-22T06:46:57.760Z,-13.54
2023-01-22T06:49:26.227Z,-13.85
2023-01-22T06:51:52.786Z,-13.86
2023-01-22T06:54:19.463Z,-13.63
2023-01-22T06:56:46.489Z,-13.68
2023-01-22T06:59:14.153Z,-13.77
2023-01-22T07:01:42.076Z,-13.18
2023-01-22T07:04:08.725Z,-12.95
2023-01-22T07:06:35.664Z,-12.40
2023-01-22T07:09:02.256Z,-12.20
2023-01-22T07:11:28.812Z,-11.91
2023-01-22T07:13:55.503Z,-12.97
2023-01-22T07:16:22.206Z,-14.05
2023-01-22T07:18:48.846Z,-13.33
2023-01-22T07:21:15.431Z,-13.29
2023-01-22T07:23:42.386Z,-13.70
2023-01-22T07:26:09.019Z,-13.66
2023-01-22T07:28:35.695Z,-13.69
2023-01-22T07:31:03.632Z,-13.41
2023-01-22T07:33:30.471Z,-13.99
2023-01-22T07:35:57.232Z,-14.69
2023-01-22T07:38:26.411Z,-14.26
2023-01-22T07:40:53.639Z,-14.14
2023-01-22T07:43:20.230Z,-13.94
2023-01-22T07:45:46.799Z,-13.85
2023-01-22T07:48:13.899Z,-14.95
2023-01-22T07:50:40.514Z,-13.09
2023-01-22T07:53:08.287Z,-13.00
2023-01-22T07:55:34.925Z,-13.14
2023-01-22T07:58:03.845Z,-13.33
2023-01-22T08:00:31.312Z,-13.74
2023-01-22T08:02:58.187Z,-12.07
2023-01-22T08:05:25.036Z,-13.78
2023-01-22T08:07:51.595Z,-11.74
2023-01-22T08:10:19.027Z,-10.93
2023-01-22T08:12:46.654Z,-10.49
2023-01-22T08:15:13.960Z,-10.41
2023-01-22T08:17:40.773Z,-10.78
2023-01-22T08:20:08.950Z,-10.64
2023-01-22T08:22:35.635Z,-10.83
2023-01-22T08:25:02.190Z,-12.02
2023-01-22T08:27:28.861Z,-12.98
2023-01-22T08:29:55.458Z,-12.95
2023-01-22T08:32:22.149Z,-13.14
2023-01-22T08:34:48.822Z,-14.12
2023-01-22T08:37:15.400Z,-12.86
2023-01-22T08:39:41.988Z,-13.70
2023-01-22T08:42:08.583Z,-13.52
2023-01-22T08:44:35.112Z,-14.01
2023-01-22T08:47:01.677Z,-14.11
2023-01-22T08:49:30.522Z,-14.21
2023-01-22T08:51:57.861Z,-14.43
2023-01-22T08:54:24.657Z,-14.65
2023-01-22T08:56:51.302Z,-13.94
2023-01-22T08:59:17.946Z,-13.21
2023-01-22T09:01:44.763Z,-13.78
2023-01-22T09:04:11.604Z,-13.34
2023-01-22T09:06:39.028Z,-14.30
2023-01-22T09:09:06.484Z,-13.01
2023-01-22T09:11:33.664Z,-14.29
2023-01-22T09:14:00.265Z,-13.77
2023-01-22T09:16:28.068Z,-14.08
2023-01-22T09:18:54.725Z,-14.42
2023-01-22T09:21:21.392Z,-15.85
2023-01-22T09:23:51.177Z,-14.51
2023-01-22T09:26:17.759Z,-13.90
2023-01-22T09:28:44.467Z,-14.26
2023-01-22T09:31:15.376Z,-14.14
2023-01-22T09:33:42.036Z,-13.91
2023-01-22T09:36:16.232Z,-13.39
2023-01-22T09:38:44.144Z,-13.66
2023-01-22T09:41:28.943Z,-13.78
2023-01-22T09:44:33.457Z,-15.15
2023-01-22T09:47:12.445Z,-12.71
2023-01-22T09:50:07.714Z,-12.38
2023-01-22T09:52:37.992Z,-11.11
2023-01-22T09:55:11.471Z,-10.68
2023-01-22T09:57:44.267Z,-10.49
2023-01-22T10:00:30.073Z,-10.77
2023-01-22T10:03:02.717Z,-11.16
2023-01-22T10:05:29.229Z,-11.10
2023-01-22T10:08:19.772Z,-11.38
2023-01-22T10:10:47.120Z,-13.58
2023-01-22T10:13:22.042Z,-12.19
2023-01-22T10:15:50.666Z,-12.21
2023-01-22T10:18:36.442Z,-12.09
2023-01-22T10:21:18.598Z,-13.19
2023-01-22T10:23:46.044Z,-13.06
2023-01-22T10:26:17.864Z,-12.21
2023-01-22T10:28:47.583Z,-12.37
2023-01-22T10:31:23.978Z,-13.23
2023-01-22T10:34:09.485Z,-12.63
2023-01-22T10:36:36.482Z,-12.03
2023-01-22T10:39:05.359Z,-11.58
2023-01-22T10:41:32.296Z,-12.02
2023-01-22T10:44:17.766Z,-12.81
2023-01-22T10:46:46.432Z,-11.71
2023-01-22T10:49:30.976Z,-11.13
2023-01-22T10:52:01.215Z,-11.40
2023-01-22T10:54:53.880Z,-11.66
2023-01-22T10:57:27.129Z,-11.06
2023-01-22T11:00:21.518Z,-10.31
2023-01-22T11:02:50.802Z,-10.36
2023-01-22T11:05:21.571Z,-9.79
2023-01-22T11:07:52.504Z,-9.59
2023-01-22T11:10:36.390Z,-9.69
2023-01-22T11:13:16.160Z,-9.96
2023-01-22T11:16:02.658Z,-9.48
2023-01-22T11:18:36.861Z,-9.40
2023-01-22T11:21:13.063Z,-8.91
2023-01-22T11:23:49.094Z,-9.01
2023-01-22T11:26:50.952Z,-9.00
2023-01-22T11:29:29.549Z,-8.75
2023-01-22T11:32:20.837Z,-9.14
2023-01-22T11:34:47.336Z,-9.14
2023-01-22T11:37:30.027Z,-10.40
2023-01-22T11:40:05.815Z,-10.76
2023-01-22T11:43:07.511Z,-10.45
2023-01-22T11:46:09.696Z,-9.81
2023-01-22T11:48:40.905Z,-9.48
2023-01-22T11:51:15.744Z,-10.81
2023-01-22T11:53:54.883Z,-11.00
2023-01-22T11:56:32.705Z,-10.53
2023-01-22T11:59:27.832Z,-9.94
2023-01-22T12:02:26.459Z,-9.68
2023-01-22T12:05:11.878Z,-9.05
2023-01-22T12:07:50.638Z,-8.84
2023-01-22T12:10:44.443Z,-8.43
2023-01-22T12:13:26.781Z,-8.39
2023-01-22T12:16:21.271Z,-8.96
2023-01-22T12:19:23.081Z,-9.25
2023-01-22T12:22:07.933Z,-9.07
2023-01-22T12:24:42.921Z,-8.91
2023-01-22T12:27:13.929Z,-9.06
2023-01-22T12:29:47.095Z,-8.87
2023-01-22T12:32:19.108Z,-8.92
2023-01-22T12:34:58.361Z,-8.80
2023-01-22T12:37:31.883Z,-7.96
2023-01-22T12:40:10.367Z,-7.71
2023-01-22T12:42:43.393Z,-7.50
2023-01-22T12:45:36.347Z,-7.41
2023-01-22T12:48:41.463Z,-7.54
2023-01-22T12:51:36.681Z,-7.68
2023-01-22T12:54:10.754Z,-7.47
2023-01-22T12:56:37.448Z,-7.89
2023-01-22T12:59:04.106Z,-8.83
2023-01-22T13:01:35.781Z,-8.88
2023-01-22T13:04:07.076Z,-8.57
2023-01-22T13:06:38.290Z,-8.15
2023-01-22T13:09:22.181Z,-7.88
2023-01-22T13:11:48.821Z,-8.61
2023-01-22T13:14:30.912Z,-9.36
2023-01-22T13:17:03.813Z,-8.14
2023-01-22T13:19:39.307Z,-8.01
2023-01-22T13:22:08.021Z,-9.09
2023-01-22T13:24:34.589Z,-8.57
2023-01-22T13:27:03.169Z,-8.65
2023-01-22T13:29:36.769Z,-8.95
2023-01-22T13:32:23.626Z,-8.92
2023-01-22T13:34:50.282Z,-8.47
2023-01-22T13:37:24.694Z,-8.19
2023-01-22T13:39:51.613Z,-7.91
2023-01-22T13:42:18.516Z,-8.16
2023-01-22T13:44:48.974Z,-7.42
2023-01-22T13:47:32.810Z,-7.94
2023-01-22T13:50:00.338Z,-7.89
2023-01-22T13:52:29.039Z,-7.90
2023-01-22T13:55:12.695Z,-8.27
2023-01-22T13:57:45.432Z,-10.25
2023-01-22T14:00:30.089Z,-9.75
2023-01-22T14:02:57.507Z,-8.92
2023-01-22T14:05:26.818Z,-7.91
2023-01-22T14:08:13.300Z,-9.44
2023-01-22T14:10:42.075Z,-10.88
2023-01-22T14:13:11.244Z,-8.48
2023-01-22T14:15:39.222Z,-9.24
2023-01-22T14:18:11.047Z,-9.25
2023-01-22T14:20:41.666Z,-9.38
2023-01-22T14:23:08.651Z,-9.11
2023-01-22T14:25:40.211Z,-9.80
2023-01-22T14:28:07.459Z,-8.46
2023-01-22T14:30:34.273Z,-8.42
2023-01-22T14:33:01.167Z,-8.39
2023-01-22T14:35:28.081Z,-9.22
2023-01-22T14:37:55.803Z,-8.18
2023-01-22T14:40:24.743Z,-9.25
2023-01-22T14:42:52.031Z,-7.84
2023-01-22T14:45:21.944Z,-7.84
2023-01-22T14:47:51.489Z,-8.36
2023-01-22T14:50:19.464Z,-8.73
2023-01-22T14:52:47.477Z,-9.20
2023-01-22T14:55:14.478Z,-9.45
2023-01-22T14:57:41.169Z,-10.09
2023-01-22T15:00:08.463Z,-9.16
2023-01-22T15:02:37.482Z,-9.49
2023-01-22T15:05:04.591Z,-9.43
2023-01-22T15:07:33.426Z,-9.27
2023-01-22T15:10:00.748Z,-9.05
2023-01-22T15:12:27.813Z,-8.93
2023-01-22T15:14:54.379Z,-9.74
2023-01-22T15:17:23.818Z,-8.58
2023-01-22T15:19:50.437Z,-8.41
2023-01-22T15:22:17.043Z,-7.93
2023-01-22T15:24:43.928Z,-8.40
2023-01-22T15:27:11.129Z,-8.32
2023-01-22T15:29:38.124Z,-8.69
2023-01-22T15:32:04.881Z,-8.23
2023-01-22T15:34:31.503Z,-7.95
2023-01-22T15:36:58.261Z,-9.66
2023-01-22T15:39:24.892Z,-8.43
2023-01-22T15:41:51.522Z,-8.62
2023-01-22T15:44:18.151Z,-8.52
2023-01-22T15:46:44.868Z,-8.89
2023-01-22T15:49:13.153Z,-8.88
2023-01-22T15:51:41.492Z,-9.09
2023-01-22T15:54:11.955Z,-9.19
2023-01-22T15:56:39.644Z,-9.03
2023-01-22T15:59:06.367Z,-8.89
2023-01-22T16:01:33.363Z,-8.71
2023-01-22T16:04:01.670Z,-8.60
2023-01-22T16:06:30.346Z,-8.91
2023-01-22T16:08:58.451Z,-8.59
2023-01-22T16:11:26.726Z,-9.02
2023-01-22T16:13:53.377Z,-8.50
2023-01-22T16:16:27.166Z,-8.45
2023-01-22T16:18:54.354Z,-8.83
2023-01-22T16:21:21.982Z,-8.55
2023-01-22T16:23:52.223Z,-8.44
2023-01-22T16:26:23.216Z,-8.39
2023-01-22T16:28:51.895Z,-9.88
2023-01-22T16:31:23.153Z,-8.71
2023-01-22T16:33:53.999Z,-8.69
2023-01-22T16:36:22.757Z,-8.38
2023-01-22T16:38:49.596Z,-8.46
2023-01-22T16:41:24.530Z,-8.02
2023-01-22T16:44:08.898Z,-7.97
2023-01-22T16:46:38.386Z,-7.99
2023-01-22T16:49:14.651Z,-8.18
2023-01-22T16:51:44.246Z,-8.71
2023-01-22T16:54:28.027Z,-8.08
2023-01-22T16:56:56.661Z,-8.07
2023-01-22T16:59:23.702Z,-8.39
2023-01-22T17:01:50.562Z,-8.13
2023-01-22T17:04:17.478Z,-7.86
2023-01-22T17:06:49.553Z,-7.21
2023-01-22T17:09:22.003Z,-6.92
2023-01-22T17:11:56.050Z,-6.68
2023-01-22T17:14:26.423Z,-6.49
2023-01-22T17:16:53.029Z,-6.50
2023-01-22T17:19:19.762Z,-6.28
2023-01-22T17:21:48.883Z,-7.58
2023-01-22T17:24:15.509Z,-8.52
2023-01-22T17:26:42.191Z,-7.57
2023-01-22T17:29:09.573Z,-7.67
2023-01-22T17:31:37.109Z,-8.07
2023-01-22T17:34:04.343Z,-7.67
2023-01-22T17:36:31.798Z,-7.40
2023-01-22T17:38:58.429Z,-6.95
2023-01-22T17:41:26.058Z,-7.72
2023-01-22T17:43:55.207Z,-8.94
2023-01-22T17:46:23.973Z,-8.70
2023-01-22T17:48:51.963Z,-7.50
2023-01-22T17:51:21.836Z,-8.75
2023-01-22T17:53:50.301Z,-8.06
2023-01-22T17:56:20.119Z,-8.10
2023-01-22T17:58:51.964Z,-7.99
2023-01-22T18:01:21.449Z,-10.16
2023-01-22T18:03:48.349Z,-8.01
2023-01-22T18:06:15.002Z,-7.95
2023-01-22T18:08:42.561Z,-7.88
2023-01-22T18:11:21.096Z,-7.86
2023-01-22T18:13:48.079Z,-7.83
2023-01-22T18:16:17.107Z,-8.22
2023-01-22T18:18:44.761Z,-9.34
2023-01-22T18:21:14.490Z,-8.43
2023-01-22T18:23:41.119Z,-10.00
2023-01-22T18:26:08.178Z,-7.85
2023-01-22T18:28:35.403Z,-7.91
2023-01-22T18:31:09.549Z,-7.85
2023-01-22T18:33:37.721Z,-9.07
2023-01-22T18:36:07.116Z,-7.13
2023-01-22T18:38:36.467Z,-7.67
2023-01-22T18:41:36.390Z,-6.44
2023-01-22T18:44:03.137Z,-6.07
2023-01-22T18:46:33.171Z,-5.86
2023-01-22T18:49:02.381Z,-5.88
2023-01-22T18:51:29.604Z,-5.73
2023-01-22T18:53:57.066Z,-5.89
2023-01-22T18:56:25.537Z,-5.54
2023-01-22T18:58:57.451Z,-5.29
2023-01-22T19:01:27.337Z,-6.62
2023-01-22T19:04:03.085Z,-5.78
2023-01-22T19:06:32.290Z,-5.56
2023-01-22T19:09:07.791Z,-5.69
2023-01-22T19:11:37.834Z,-5.36
2023-01-22T19:14:07.156Z,-5.58
2023-01-22T19:16:33.944Z,-5.16
2023-01-22T19:19:03.921Z,-4.97
2023-01-22T19:21:31.447Z,-4.92
2023-01-22T19:24:01.692Z,-5.75
2023-01-22T19:26:33.669Z,-6.42
2023-01-22T19:29:03.641Z,-5.72
2023-01-22T19:31:36.574Z,-5.40
2023-01-22T19:34:04.179Z,-5.15
2023-01-22T19:36:32.823Z,-5.05
2023-01-22T19:39:03.329Z,-5.40
2023-01-22T19:41:32.596Z,-5.51
2023-01-22T19:44:01.176Z,-6.57
2023-01-22T19:46:28.769Z,-6.18
2023-01-22T19:48:55.546Z,-5.83
2023-01-22T19:51:24.601Z,-6.45
2023-01-22T19:53:51.279Z,-6.03
2023-01-22T19:56:23.527Z,-5.80
2023-01-22T19:58:51.568Z,-5.83
2023-01-22T20:01:18.283Z,-6.31
2023-01-22T20:03:45.186Z,-6.07
2023-01-22T20:06:13.684Z,-5.17
2023-01-22T20:08:40.965Z,-5.07
2023-01-22T20:11:09.206Z,-5.28
2023-01-22T20:13:37.791Z,-4.80
2023-01-22T20:16:06.601Z,-4.80
2023-01-22T20:18:34.239Z,-4.54
2023-01-22T20:21:02.627Z,-4.60
2023-01-22T20:23:30.264Z,-4.73
2023-01-22T20:25:58.779Z,-4.71
2023-01-22T20:28:25.782Z,-5.41
2023-01-22T20:31:00.887Z,-4.51
2023-01-22T20:33:28.127Z,-4.35
2023-01-22T20:35:59.278Z,-4.52
2023-01-22T20:38:26.410Z,-4.83
2023-01-22T20:40:53.192Z,-4.56
2023-01-22T20:43:20.704Z,-4.41
2023-01-22T20:46:02.356Z,-4.44
2023-01-22T20:48:30.644Z,-4.41
2023-01-22T20:50:57.872Z,-4.14
2023-01-22T20:53:25.467Z,-4.02
2023-01-22T20:55:59.384Z,-4.13
2023-01-22T20:58:26.467Z,-4.89
2023-01-22T21:00:53.209Z,-3.96
2023-01-22T21:03:19.991Z,-3.86
2023-01-22T21:05:46.735Z,-3.85
2023-01-22T21:08:14.985Z,-4.84
2023-01-22T21:10:41.677Z,-3.86
2023-01-22T21:13:08.372Z,-4.85
2023-01-22T21:15:34.947Z,-3.96
2023-01-22T21:18:01.586Z,-4.52
2023-01-22T21:20:28.186Z,-3.97
2023-01-22T21:22:54.823Z,-3.87
2023-01-22T21:25:21.381Z,-4.01
2023-01-22T21:27:50.882Z,-4.11
2023-01-22T21:30:17.994Z,-3.74
2023-01-22T21:32:44.781Z,-4.25
2023-01-22T21:35:11.540Z,-4.23
2023-01-22T21:37:38.086Z,-3.90
2023-01-22T21:40:06.484Z,-3.75
2023-01-22T21:42:51.831Z,-4.47
2023-01-22T21:45:36.777Z,-4.09
2023-01-22T21:48:03.599Z,-3.74
2023-01-22T21:50:30.164Z,-3.68
2023-01-22T21:52:56.791Z,-3.96
2023-01-22T21:55:23.546Z,-4.31
2023-01-22T21:57:51.392Z,-3.60
2023-01-22T22:00:19.600Z,-3.53
2023-01-22T22:02:46.384Z,-3.52
2023-01-22T22:05:13.140Z,-3.61
2023-01-22T22:07:40.140Z,-3.65
2023-01-22T22:10:12.586Z,-3.57
2023-01-22T22:12:39.770Z,-3.52
2023-01-22T22:15:09.792Z,-3.77
2023-01-22T22:17:36.977Z,-3.52
2023-01-22T22:20:08.380Z,-3.74
2023-01-22T22:22:34.979Z,-4.51
2023-01-22T22:25:01.583Z,-4.76
2023-01-22T22:27:28.204Z,-3.48
2023-01-22T22:29:54.966Z,-3.51
2023-01-22T22:32:21.668Z,-4.95
2023-01-22T22:34:49.638Z,-3.45
2023-01-22T22:37:17.387Z,-3.68
2023-01-22T22:39:43.954Z,-3.46
2023-01-22T22:42:10.602Z,-3.63
2023-01-22T22:44:37.665Z,-3.59
2023-01-22T22:47:05.055Z,-4.40
2023-01-22T22:49:31.755Z,-3.53
2023-01-22T22:51:58.421Z,-3.56
2023-01-22T22:54:25.036Z,-3.74
2023-01-22T22:56:52.774Z,-3.89
2023-01-22T22:59:20.796Z,-3.94
2023-01-22T23:01:49.094Z,-3.83
2023-01-22T23:04:15.907Z,-4.69
2023-01-22T23:06:45.132Z,-3.59
2023-01-22T23:09:14.821Z,-3.61
2023-01-22T23:11:41.450Z,-3.65
2023-01-22T23:14:11.642Z,-4.78
2023-01-22T23:16:40.849Z,-4.50
2023-01-22T23:19:13.959Z,-3.53
2023-01-22T23:21:41.647Z,-3.39
2023-01-22T23:24:11.439Z,-3.46
2023-01-22T23:26:39.055Z,-3.50
2023-01-22T23:29:08.371Z,-3.64
2023-01-22T23:31:36.307Z,-6.90
2023-01-22T23:34:06.566Z,-5.09
2023-01-22T23:36:35.032Z,-3.98
2023-01-22T23:39:03.109Z,-4.05
2023-01-22T23:41:29.743Z,-3.66
2023-01-22T23:43:56.435Z,-4.77
2023-01-22T23:46:28.346Z,-3.56
2023-01-22T23:48:58.849Z,-3.53
2023-01-22T23:51:25.858Z,-3.54
2023-01-22T23:53:53.228Z,-4.47
2023-01-22T23:56:22.637Z,-3.79
2023-01-22T23:58:49.638Z,-3.87
